sensor_id;sensor_type;location;lat;lon;timestamp;P1;durP1;ratioP1;P2;durP2;ratioP2
43319;SDS011;28914;48.722;9.332;2023-10-19T00:03:41;14.80;;;13.40;;
43319;SDS011;28914;48.722;9.332;2023-10-19T00:09:02;11.80;;;9.13;;
43319;SDS011;28914;48.722;9.332;2023-10-19T00:14:22;11.73;;;10.63;;
43319;SDS011;28914;48.722;9.332;2023-10-19T00:19:41;13.13;;;11.83;;
43319;SDS011;28914;48.722;9.332;2023-10-19T00:25:16;14.97;;;13.47;;
43319;SDS011;28914;48.722;9.332;2023-10-19T00:30:35;11.67;;;10.57;;
43319;SDS011;28914;48.722;9.332;2023-10-19T00:35:55;10.47;;;9.47;;
43319;SDS011;28914;48.722;9.332;2023-10-19T00:41:26;11.30;;;10.30;;
43319;SDS011;28914;48.722;9.332;2023-10-19T00:46:49;10.07;;;9.10;;
43319;SDS011;28914;48.722;9.332;2023-10-19T00:52:19;11.50;;;10.43;;
43319;SDS011;28914;48.722;9.332;2023-10-19T00:57:39;9.97;;;8.97;;
43319;SDS011;28914;48.722;9.332;2023-10-19T01:03:01;10.23;;;9.33;;
43319;SDS011;28914;48.722;9.332;2023-10-19T01:08:23;8.83;;;8.03;;
43319;SDS011;28914;48.722;9.332;2023-10-19T01:13:45;10.10;;;9.20;;
43319;SDS011;28914;48.722;9.332;2023-10-19T01:19:06;12.80;;;11.70;;
43319;SDS011;28914;48.722;9.332;2023-10-19T01:24:26;12.73;;;11.63;;
43319;SDS011;28914;48.722;9.332;2023-10-19T01:29:59;10.23;;;9.23;;
43319;SDS011;28914;48.722;9.332;2023-10-19T01:35:20;14.07;;;12.77;;
43319;SDS011;28914;48.722;9.332;2023-10-19T01:40:39;17.43;;;15.80;;
43319;SDS011;28914;48.722;9.332;2023-10-19T01:46:04;13.20;;;11.90;;
43319;SDS011;28914;48.722;9.332;2023-10-19T01:51:24;14.20;;;12.83;;
43319;SDS011;28914;48.722;9.332;2023-10-19T01:56:45;12.10;;;10.93;;
43319;SDS011;28914;48.722;9.332;2023-10-19T02:02:05;11.93;;;10.73;;
43319;SDS011;28914;48.722;9.332;2023-10-19T02:07:28;9.30;;;8.50;;
43319;SDS011;28914;48.722;9.332;2023-10-19T02:12:47;7.93;;;7.20;;
43319;SDS011;28914;48.722;9.332;2023-10-19T02:18:06;7.63;;;6.90;;
43319;SDS011;28914;48.722;9.332;2023-10-19T02:23:27;9.60;;;8.70;;
43319;SDS011;28914;48.722;9.332;2023-10-19T02:28:47;8.30;;;7.60;;
43319;SDS011;28914;48.722;9.332;2023-10-19T02:34:10;10.87;;;9.77;;
43319;SDS011;28914;48.722;9.332;2023-10-19T02:39:30;8.13;;;7.33;;
43319;SDS011;28914;48.722;9.332;2023-10-19T02:44:49;7.17;;;6.57;;
43319;SDS011;28914;48.722;9.332;2023-10-19T02:50:09;7.97;;;7.27;;
43319;SDS011;28914;48.722;9.332;2023-10-19T02:55:41;7.70;;;7.00;;
43319;SDS011;28914;48.722;9.332;2023-10-19T03:01:00;8.17;;;7.40;;
43319;SDS011;28914;48.722;9.332;2023-10-19T03:06:20;8.40;;;7.70;;
43319;SDS011;28914;48.722;9.332;2023-10-19T03:11:40;8.47;;;7.73;;
43319;SDS011;28914;48.722;9.332;2023-10-19T03:17:00;7.43;;;6.87;;
43319;SDS011;28914;48.722;9.332;2023-10-19T03:22:20;8.67;;;7.87;;
43319;SDS011;28914;48.722;9.332;2023-10-19T03:27:39;8.50;;;7.80;;
43319;SDS011;28914;48.722;9.332;2023-10-19T03:33:04;8.47;;;7.77;;
43319;SDS011;28914;48.722;9.332;2023-10-19T03:38:27;11.67;;;10.57;;
43319;SDS011;28914;48.722;9.332;2023-10-19T03:43:51;10.03;;;9.17;;
43319;SDS011;28914;48.722;9.332;2023-10-19T03:49:12;9.77;;;8.77;;
43319;SDS011;28914;48.722;9.332;2023-10-19T03:54:32;10.33;;;9.43;;
43319;SDS011;28914;48.722;9.332;2023-10-19T03:59:51;10.80;;;9.90;;
43319;SDS011;28914;48.722;9.332;2023-10-19T04:05:17;8.73;;;7.93;;
43319;SDS011;28914;48.722;9.332;2023-10-19T04:10:40;8.50;;;7.80;;
43319;SDS011;28914;48.722;9.332;2023-10-19T04:16:03;8.63;;;7.87;;
43319;SDS011;28914;48.722;9.332;2023-10-19T04:21:24;8.97;;;8.17;;
43319;SDS011;28914;48.722;9.332;2023-10-19T04:26:43;10.37;;;9.37;;
43319;SDS011;28914;48.722;9.332;2023-10-19T04:32:02;7.83;;;6.60;;
43319;SDS011;28914;48.722;9.332;2023-10-19T04:37:25;8.97;;;8.10;;
43319;SDS011;28914;48.722;9.332;2023-10-19T04:42:45;10.57;;;9.67;;
43319;SDS011;28914;48.722;9.332;2023-10-19T04:48:05;7.80;;;7.00;;
43319;SDS011;28914;48.722;9.332;2023-10-19T04:53:24;6.63;;;6.00;;
43319;SDS011;28914;48.722;9.332;2023-10-19T04:58:43;7.90;;;7.20;;
43319;SDS011;28914;48.722;9.332;2023-10-19T05:04:02;9.00;;;8.10;;
43319;SDS011;28914;48.722;9.332;2023-10-19T05:09:22;6.80;;;6.20;;
43319;SDS011;28914;48.722;9.332;2023-10-19T05:14:42;7.70;;;7.10;;
43319;SDS011;28914;48.722;9.332;2023-10-19T05:20:01;8.20;;;7.50;;
43319;SDS011;28914;48.722;9.332;2023-10-19T05:25:23;8.70;;;7.90;;
43319;SDS011;28914;48.722;9.332;2023-10-19T05:30:42;8.97;;;8.07;;
43319;SDS011;28914;48.722;9.332;2023-10-19T05:36:02;6.77;;;6.17;;
43319;SDS011;28914;48.722;9.332;2023-10-19T05:41:21;7.20;;;6.60;;
43319;SDS011;28914;48.722;9.332;2023-10-19T05:46:40;9.77;;;8.87;;
43319;SDS011;28914;48.722;9.332;2023-10-19T05:51:59;10.67;;;8.97;;
43319;SDS011;28914;48.722;9.332;2023-10-19T05:57:19;9.20;;;8.40;;
43319;SDS011;28914;48.722;9.332;2023-10-19T06:02:42;8.60;;;7.87;;
43319;SDS011;28914;48.722;9.332;2023-10-19T06:08:03;10.80;;;9.70;;
43319;SDS011;28914;48.722;9.332;2023-10-19T06:13:23;9.17;;;8.37;;
43319;SDS011;28914;48.722;9.332;2023-10-19T06:18:43;8.40;;;7.70;;
43319;SDS011;28914;48.722;9.332;2023-10-19T06:24:02;9.23;;;8.30;;
43319;SDS011;28914;48.722;9.332;2023-10-19T06:29:22;8.17;;;7.47;;
43319;SDS011;28914;48.722;9.332;2023-10-19T06:34:46;9.97;;;9.00;;
43319;SDS011;28914;48.722;9.332;2023-10-19T06:40:05;11.10;;;10.10;;
43319;SDS011;28914;48.722;9.332;2023-10-19T06:45:25;9.43;;;8.53;;
43319;SDS011;28914;48.722;9.332;2023-10-19T06:50:44;8.87;;;7.67;;
43319;SDS011;28914;48.722;9.332;2023-10-19T06:56:03;10.50;;;9.60;;
43319;SDS011;28914;48.722;9.332;2023-10-19T07:01:23;8.57;;;7.77;;
43319;SDS011;28914;48.722;9.332;2023-10-19T07:06:45;10.13;;;9.13;;
43319;SDS011;28914;48.722;9.332;2023-10-19T07:12:06;10.60;;;9.60;;
43319;SDS011;28914;48.722;9.332;2023-10-19T07:17:27;9.93;;;9.03;;
43319;SDS011;28914;48.722;9.332;2023-10-19T07:22:46;9.50;;;8.30;;
43319;SDS011;28914;48.722;9.332;2023-10-19T07:28:05;13.03;;;11.70;;
43319;SDS011;28914;48.722;9.332;2023-10-19T07:33:25;12.40;;;11.20;;
43319;SDS011;28914;48.722;9.332;2023-10-19T07:38:45;9.20;;;8.40;;
43319;SDS011;28914;48.722;9.332;2023-10-19T07:44:06;11.27;;;10.10;;
43319;SDS011;28914;48.722;9.332;2023-10-19T07:49:25;9.03;;;8.23;;
43319;SDS011;28914;48.722;9.332;2023-10-19T07:54:44;10.93;;;8.90;;
43319;SDS011;28914;48.722;9.332;2023-10-19T08:00:04;11.57;;;10.50;;
43319;SDS011;28914;48.722;9.332;2023-10-19T08:05:24;10.87;;;9.30;;
43319;SDS011;28914;48.722;9.332;2023-10-19T08:10:43;9.97;;;9.00;;
43319;SDS011;28914;48.722;9.332;2023-10-19T08:16:02;9.77;;;8.90;;
43319;SDS011;28914;48.722;9.332;2023-10-19T08:21:22;8.90;;;8.10;;
43319;SDS011;28914;48.722;9.332;2023-10-19T08:26:41;13.00;;;11.77;;
43319;SDS011;28914;48.722;9.332;2023-10-19T08:32:00;28.43;;;25.43;;
43319;SDS011;28914;48.722;9.332;2023-10-19T08:37:19;12.07;;;10.97;;
43319;SDS011;28914;48.722;9.332;2023-10-19T08:42:39;8.17;;;7.37;;
43319;SDS011;28914;48.722;9.332;2023-10-19T08:47:59;8.83;;;8.03;;
43319;SDS011;28914;48.722;9.332;2023-10-19T08:53:20;9.90;;;8.90;;
43319;SDS011;28914;48.722;9.332;2023-10-19T08:58:41;7.93;;;7.23;;
43319;SDS011;28914;48.722;9.332;2023-10-19T09:04:00;8.43;;;7.73;;
43319;SDS011;28914;48.722;9.332;2023-10-19T09:09:19;7.23;;;6.57;;
43319;SDS011;28914;48.722;9.332;2023-10-19T09:14:39;7.23;;;6.60;;
43319;SDS011;28914;48.722;9.332;2023-10-19T09:20:01;6.60;;;6.00;;
43319;SDS011;28914;48.722;9.332;2023-10-19T09:25:28;7.30;;;6.60;;
43319;SDS011;28914;48.722;9.332;2023-10-19T09:30:48;8.00;;;6.30;;
43319;SDS011;28914;48.722;9.332;2023-10-19T09:36:08;6.10;;;5.50;;
43319;SDS011;28914;48.722;9.332;2023-10-19T09:41:32;5.93;;;5.43;;
43319;SDS011;28914;48.722;9.332;2023-10-19T09:46:53;6.50;;;6.00;;
43319;SDS011;28914;48.722;9.332;2023-10-19T09:52:16;6.53;;;5.93;;
43319;SDS011;28914;48.722;9.332;2023-10-19T10:03:43;8.60;;;7.90;;
43319;SDS011;28914;48.722;9.332;2023-10-19T10:09:02;9.60;;;8.70;;
43319;SDS011;28914;48.722;9.332;2023-10-19T10:14:23;8.63;;;7.83;;
43319;SDS011;28914;48.722;9.332;2023-10-19T10:19:47;7.13;;;6.43;;
43319;SDS011;28914;48.722;9.332;2023-10-19T10:25:07;8.03;;;7.33;;
43319;SDS011;28914;48.722;9.332;2023-10-19T10:30:27;7.73;;;7.03;;
43319;SDS011;28914;48.722;9.332;2023-10-19T10:35:53;7.40;;;6.70;;
43319;SDS011;28914;48.722;9.332;2023-10-19T10:41:12;8.10;;;6.30;;
43319;SDS011;28914;48.722;9.332;2023-10-19T10:46:39;6.63;;;5.93;;
43319;SDS011;28914;48.722;9.332;2023-10-19T10:51:59;7.50;;;6.27;;
43319;SDS011;28914;48.722;9.332;2023-10-19T10:57:18;7.30;;;6.60;;
43319;SDS011;28914;48.722;9.332;2023-10-19T11:02:38;6.30;;;5.80;;
43319;SDS011;28914;48.722;9.332;2023-10-19T11:08:14;6.90;;;6.27;;
43319;SDS011;28914;48.722;9.332;2023-10-19T11:13:39;7.30;;;6.70;;
43319;SDS011;28914;48.722;9.332;2023-10-19T11:18:58;6.90;;;6.30;;
43319;SDS011;28914;48.722;9.332;2023-10-19T11:24:24;7.57;;;6.87;;
43319;SDS011;28914;48.722;9.332;2023-10-19T11:29:54;6.40;;;5.80;;
43319;SDS011;28914;48.722;9.332;2023-10-19T11:35:18;6.57;;;5.97;;
43319;SDS011;28914;48.722;9.332;2023-10-19T11:40:38;5.37;;;4.87;;
43319;SDS011;28914;48.722;9.332;2023-10-19T11:45:57;5.30;;;4.63;;
43319;SDS011;28914;48.722;9.332;2023-10-19T11:51:16;4.60;;;4.20;;
43319;SDS011;28914;48.722;9.332;2023-10-19T11:56:36;5.07;;;4.57;;
43319;SDS011;28914;48.722;9.332;2023-10-19T12:01:56;6.20;;;5.60;;
43319;SDS011;28914;48.722;9.332;2023-10-19T12:07:17;7.00;;;4.73;;
43319;SDS011;28914;48.722;9.332;2023-10-19T12:12:36;8.10;;;7.40;;
43319;SDS011;28914;48.722;9.332;2023-10-19T12:17:55;6.40;;;5.80;;
43319;SDS011;28914;48.722;9.332;2023-10-19T12:23:17;7.50;;;6.80;;
43319;SDS011;28914;48.722;9.332;2023-10-19T12:28:39;9.13;;;7.10;;
43319;SDS011;28914;48.722;9.332;2023-10-19T12:33:59;7.43;;;6.73;;
43319;SDS011;28914;48.722;9.332;2023-10-19T12:39:20;7.77;;;7.17;;
43319;SDS011;28914;48.722;9.332;2023-10-19T12:44:58;13.03;;;7.57;;
43319;SDS011;28914;48.722;9.332;2023-10-19T12:50:18;7.63;;;6.90;;
43319;SDS011;28914;48.722;9.332;2023-10-19T12:55:41;7.93;;;7.23;;
43319;SDS011;28914;48.722;9.332;2023-10-19T13:01:01;6.73;;;6.03;;
43319;SDS011;28914;48.722;9.332;2023-10-19T13:06:23;7.40;;;5.67;;
43319;SDS011;28914;48.722;9.332;2023-10-19T13:11:47;5.90;;;5.30;;
43319;SDS011;28914;48.722;9.332;2023-10-19T13:17:10;6.33;;;5.73;;
43319;SDS011;28914;48.722;9.332;2023-10-19T13:22:29;6.07;;;4.33;;
43319;SDS011;28914;48.722;9.332;2023-10-19T13:27:52;7.00;;;5.77;;
43319;SDS011;28914;48.722;9.332;2023-10-19T13:33:12;7.00;;;6.40;;
43319;SDS011;28914;48.722;9.332;2023-10-19T13:38:32;7.43;;;6.73;;
43319;SDS011;28914;48.722;9.332;2023-10-19T13:43:51;6.27;;;5.63;;
43319;SDS011;28914;48.722;9.332;2023-10-19T13:49:10;5.00;;;4.50;;
43319;SDS011;28914;48.722;9.332;2023-10-19T13:54:30;5.13;;;4.63;;
43319;SDS011;28914;48.722;9.332;2023-10-19T13:59:49;5.00;;;4.50;;
43319;SDS011;28914;48.722;9.332;2023-10-19T14:05:09;4.93;;;4.50;;
43319;SDS011;28914;48.722;9.332;2023-10-19T14:10:28;4.97;;;4.47;;
43319;SDS011;28914;48.722;9.332;2023-10-19T14:15:48;5.70;;;5.00;;
43319;SDS011;28914;48.722;9.332;2023-10-19T14:21:11;5.10;;;4.60;;
43319;SDS011;28914;48.722;9.332;2023-10-19T14:26:34;5.60;;;5.10;;
43319;SDS011;28914;48.722;9.332;2023-10-19T14:31:53;4.70;;;4.30;;
43319;SDS011;28914;48.722;9.332;2023-10-19T14:37:12;7.33;;;6.67;;
43319;SDS011;28914;48.722;9.332;2023-10-19T14:42:32;6.20;;;5.17;;
43319;SDS011;28914;48.722;9.332;2023-10-19T14:47:52;5.20;;;4.80;;
43319;SDS011;28914;48.722;9.332;2023-10-19T14:53:22;5.27;;;4.83;;
43319;SDS011;28914;48.722;9.332;2023-10-19T14:58:43;5.23;;;4.83;;
43319;SDS011;28914;48.722;9.332;2023-10-19T15:04:02;5.77;;;5.37;;
43319;SDS011;28914;48.722;9.332;2023-10-19T15:09:21;6.87;;;6.20;;
43319;SDS011;28914;48.722;9.332;2023-10-19T15:14:44;5.00;;;4.60;;
43319;SDS011;28914;48.722;9.332;2023-10-19T15:20:04;4.73;;;4.30;;
43319;SDS011;28914;48.722;9.332;2023-10-19T15:25:30;5.53;;;4.57;;
43319;SDS011;28914;48.722;9.332;2023-10-19T15:30:50;6.77;;;4.80;;
43319;SDS011;28914;48.722;9.332;2023-10-19T15:36:11;4.27;;;3.87;;
43319;SDS011;28914;48.722;9.332;2023-10-19T15:41:30;4.03;;;3.60;;
43319;SDS011;28914;48.722;9.332;2023-10-19T15:46:49;4.10;;;3.80;;
43319;SDS011;28914;48.722;9.332;2023-10-19T15:52:08;4.47;;;4.03;;
43319;SDS011;28914;48.722;9.332;2023-10-19T15:57:28;6.27;;;3.63;;
43319;SDS011;28914;48.722;9.332;2023-10-19T16:02:49;4.80;;;4.40;;
43319;SDS011;28914;48.722;9.332;2023-10-19T16:08:08;4.40;;;3.60;;
43319;SDS011;28914;48.722;9.332;2023-10-19T16:13:27;7.30;;;3.70;;
43319;SDS011;28914;48.722;9.332;2023-10-19T16:18:46;3.67;;;3.30;;
43319;SDS011;28914;48.722;9.332;2023-10-19T16:24:05;3.90;;;3.50;;
43319;SDS011;28914;48.722;9.332;2023-10-19T16:29:28;4.67;;;3.43;;
43319;SDS011;28914;48.722;9.332;2023-10-19T16:34:48;3.50;;;3.20;;
43319;SDS011;28914;48.722;9.332;2023-10-19T16:40:07;3.90;;;3.60;;
43319;SDS011;28914;48.722;9.332;2023-10-19T16:45:27;4.23;;;3.37;;
43319;SDS011;28914;48.722;9.332;2023-10-19T16:50:46;3.70;;;3.40;;
43319;SDS011;28914;48.722;9.332;2023-10-19T16:56:05;3.67;;;3.37;;
43319;SDS011;28914;48.722;9.332;2023-10-19T17:01:25;3.47;;;2.87;;
43319;SDS011;28914;48.722;9.332;2023-10-19T17:06:46;3.60;;;3.30;;
43319;SDS011;28914;48.722;9.332;2023-10-19T17:12:05;4.50;;;2.93;;
43319;SDS011;28914;48.722;9.332;2023-10-19T17:17:26;6.93;;;6.33;;
43319;SDS011;28914;48.722;9.332;2023-10-19T17:22:46;7.10;;;6.00;;
43319;SDS011;28914;48.722;9.332;2023-10-19T17:28:05;10.17;;;9.40;;
43319;SDS011;28914;48.722;9.332;2023-10-19T17:33:25;43.50;;;38.87;;
43319;SDS011;28914;48.722;9.332;2023-10-19T17:38:46;20.23;;;18.53;;
43319;SDS011;28914;48.722;9.332;2023-10-19T17:44:05;14.20;;;13.10;;
43319;SDS011;28914;48.722;9.332;2023-10-19T17:49:24;9.37;;;8.57;;
43319;SDS011;28914;48.722;9.332;2023-10-19T17:54:44;9.17;;;8.47;;
43319;SDS011;28914;48.722;9.332;2023-10-19T18:00:03;8.30;;;7.70;;
43319;SDS011;28914;48.722;9.332;2023-10-19T18:05:22;6.10;;;5.57;;
43319;SDS011;28914;48.722;9.332;2023-10-19T18:10:42;4.30;;;4.00;;
43319;SDS011;28914;48.722;9.332;2023-10-19T18:16:02;5.50;;;4.27;;
43319;SDS011;28914;48.722;9.332;2023-10-19T18:21:23;4.67;;;3.87;;
43319;SDS011;28914;48.722;9.332;2023-10-19T18:26:42;4.63;;;4.23;;
43319;SDS011;28914;48.722;9.332;2023-10-19T18:32:04;6.70;;;4.50;;
43319;SDS011;28914;48.722;9.332;2023-10-19T18:37:23;8.53;;;5.47;;
43319;SDS011;28914;48.722;9.332;2023-10-19T18:42:42;7.63;;;6.60;;
43319;SDS011;28914;48.722;9.332;2023-10-19T18:48:02;9.07;;;8.27;;
43319;SDS011;28914;48.722;9.332;2023-10-19T18:53:21;10.70;;;9.70;;
43319;SDS011;28914;48.722;9.332;2023-10-19T18:58:41;10.80;;;9.80;;
43319;SDS011;28914;48.722;9.332;2023-10-19T19:04:00;7.17;;;6.57;;
43319;SDS011;28914;48.722;9.332;2023-10-19T19:09:19;8.27;;;7.57;;
43319;SDS011;28914;48.722;9.332;2023-10-19T19:14:38;9.17;;;8.37;;
43319;SDS011;28914;48.722;9.332;2023-10-19T19:19:57;10.17;;;9.17;;
43319;SDS011;28914;48.722;9.332;2023-10-19T19:25:17;8.60;;;7.80;;
43319;SDS011;28914;48.722;9.332;2023-10-19T19:30:36;8.53;;;7.83;;
43319;SDS011;28914;48.722;9.332;2023-10-19T19:35:57;10.53;;;9.50;;
43319;SDS011;28914;48.722;9.332;2023-10-19T19:41:16;18.30;;;16.57;;
43319;SDS011;28914;48.722;9.332;2023-10-19T19:46:35;16.93;;;15.30;;
43319;SDS011;28914;48.722;9.332;2023-10-19T19:51:54;9.67;;;8.87;;
43319;SDS011;28914;48.722;9.332;2023-10-19T19:57:13;9.03;;;8.27;;
43319;SDS011;28914;48.722;9.332;2023-10-19T20:02:34;9.03;;;8.23;;
43319;SDS011;28914;48.722;9.332;2023-10-19T20:07:53;8.43;;;7.80;;
43319;SDS011;28914;48.722;9.332;2023-10-19T20:13:13;7.27;;;6.57;;
43319;SDS011;28914;48.722;9.332;2023-10-19T20:18:32;7.30;;;6.67;;
43319;SDS011;28914;48.722;9.332;2023-10-19T20:23:51;8.03;;;7.33;;
43319;SDS011;28914;48.722;9.332;2023-10-19T20:29:11;7.13;;;6.43;;
43319;SDS011;28914;48.722;9.332;2023-10-19T20:34:31;6.70;;;6.10;;
43319;SDS011;28914;48.722;9.332;2023-10-19T20:39:51;7.60;;;6.90;;
43319;SDS011;28914;48.722;9.332;2023-10-19T20:45:10;7.40;;;6.80;;
43319;SDS011;28914;48.722;9.332;2023-10-19T20:50:31;7.87;;;7.20;;
43319;SDS011;28914;48.722;9.332;2023-10-19T20:55:50;8.47;;;7.67;;
43319;SDS011;28914;48.722;9.332;2023-10-19T21:01:10;17.97;;;16.40;;
43319;SDS011;28914;48.722;9.332;2023-10-19T21:06:31;21.60;;;19.47;;
43319;SDS011;28914;48.722;9.332;2023-10-19T21:11:50;17.90;;;16.27;;
43319;SDS011;28914;48.722;9.332;2023-10-19T21:17:10;12.97;;;11.87;;
43319;SDS011;28914;48.722;9.332;2023-10-19T21:22:30;9.60;;;8.73;;
43319;SDS011;28914;48.722;9.332;2023-10-19T21:27:49;7.70;;;7.00;;
43319;SDS011;28914;48.722;9.332;2023-10-19T21:33:09;7.80;;;7.10;;
43319;SDS011;28914;48.722;9.332;2023-10-19T21:38:28;7.97;;;7.27;;
43319;SDS011;28914;48.722;9.332;2023-10-19T21:43:48;7.53;;;6.23;;
43319;SDS011;28914;48.722;9.332;2023-10-19T21:49:07;7.30;;;6.67;;
43319;SDS011;28914;48.722;9.332;2023-10-19T21:54:27;7.00;;;6.40;;
43319;SDS011;28914;48.722;9.332;2023-10-19T21:59:46;7.87;;;7.27;;
43319;SDS011;28914;48.722;9.332;2023-10-19T22:05:06;7.30;;;6.60;;
43319;SDS011;28914;48.722;9.332;2023-10-19T22:10:26;6.23;;;5.73;;
43319;SDS011;28914;48.722;9.332;2023-10-19T22:15:46;7.40;;;6.80;;
43319;SDS011;28914;48.722;9.332;2023-10-19T22:21:05;6.97;;;6.30;;
43319;SDS011;28914;48.722;9.332;2023-10-19T22:26:24;5.93;;;5.43;;
43319;SDS011;28914;48.722;9.332;2023-10-19T22:31:44;6.27;;;5.67;;
43319;SDS011;28914;48.722;9.332;2023-10-19T22:37:03;6.73;;;5.90;;
43319;SDS011;28914;48.722;9.332;2023-10-19T22:42:23;6.00;;;5.50;;
43319;SDS011;28914;48.722;9.332;2023-10-19T22:47:42;5.30;;;4.87;;
43319;SDS011;28914;48.722;9.332;2023-10-19T22:53:03;6.10;;;5.50;;
43319;SDS011;28914;48.722;9.332;2023-10-19T22:58:22;6.77;;;5.37;;
43319;SDS011;28914;48.722;9.332;2023-10-19T23:03:41;5.37;;;4.97;;
43319;SDS011;28914;48.722;9.332;2023-10-19T23:09:03;5.13;;;4.03;;
43319;SDS011;28914;48.722;9.332;2023-10-19T23:14:22;4.90;;;4.40;;
43319;SDS011;28914;48.722;9.332;2023-10-19T23:19:42;5.17;;;3.73;;
43319;SDS011;28914;48.722;9.332;2023-10-19T23:25:10;3.97;;;3.63;;
43319;SDS011;28914;48.722;9.332;2023-10-19T23:30:30;3.60;;;3.30;;
43319;SDS011;28914;48.722;9.332;2023-10-19T23:35:51;4.80;;;4.40;;
43319;SDS011;28914;48.722;9.332;2023-10-19T23:41:10;4.00;;;3.70;;
43319;SDS011;28914;48.722;9.332;2023-10-19T23:46:29;5.37;;;3.90;;
43319;SDS011;28914;48.722;9.332;2023-10-19T23:51:48;5.20;;;4.77;;
43319;SDS011;28914;48.722;9.332;2023-10-19T23:57:08;5.20;;;4.70;;
